sensor_id;sensor_type;location;lat;lon;timestamp;temperature;humidity
26595;DHT22;14238;49.496;8.154;2022-12-18T00:01:03;-8.40;99.90
26595;DHT22;14238;49.496;8.154;2022-12-18T00:03:33;-8.30;99.90
26595;DHT22;14238;49.496;8.154;2022-12-18T00:05:59;-8.20;99.90
26595;DHT22;14238;49.496;8.154;2022-12-18T00:08:24;-8.10;99.90
26595;DHT22;14238;49.496;8.154;2022-12-18T00:10:50;-8.10;99.90
26595;DHT22;14238;49.496;8.154;2022-12-18T00:13:16;-8.10;99.90
26595;DHT22;14238;49.496;8.154;2022-12-18T00:15:41;-8.00;99.90
26595;DHT22;14238;49.496;8.154;2022-12-18T00:18:07;-8.10;99.90
26595;DHT22;14238;49.496;8.154;2022-12-18T00:20:39;-8.10;99.90
26595;DHT22;14238;49.496;8.154;2022-12-18T00:23:06;-8.10;99.90
26595;DHT22;14238;49.496;8.154;2022-12-18T00:25:36;-8.10;99.90
26595;DHT22;14238;49.496;8.154;2022-12-18T00:28:03;-8.00;99.90
26595;DHT22;14238;49.496;8.154;2022-12-18T00:30:29;-8.10;99.90
26595;DHT22;14238;49.496;8.154;2022-12-18T00:32:55;-8.10;99.90
26595;DHT22;14238;49.496;8.154;2022-12-18T00:35:21;-8.10;99.90
26595;DHT22;14238;49.496;8.154;2022-12-18T00:37:47;-8.10;99.90
26595;DHT22;14238;49.496;8.154;2022-12-18T00:40:13;-8.10;99.90
26595;DHT22;14238;49.496;8.154;2022-12-18T00:42:38;-8.10;99.90
26595;DHT22;14238;49.496;8.154;2022-12-18T00:45:24;-8.10;99.90
26595;DHT22;14238;49.496;8.154;2022-12-18T00:47:50;-8.20;99.90
26595;DHT22;14238;49.496;8.154;2022-12-18T00:50:16;-8.10;99.90
26595;DHT22;14238;49.496;8.154;2022-12-18T00:52:42;-8.20;99.90
26595;DHT22;14238;49.496;8.154;2022-12-18T00:55:08;-8.30;99.90
26595;DHT22;14238;49.496;8.154;2022-12-18T00:57:34;-8.30;99.90
26595;DHT22;14238;49.496;8.154;2022-12-18T01:00:00;-8.30;99.90
26595;DHT22;14238;49.496;8.154;2022-12-18T01:02:26;-8.20;99.90
26595;DHT22;14238;49.496;8.154;2022-12-18T01:04:52;-8.30;99.90
26595;DHT22;14238;49.496;8.154;2022-12-18T01:07:17;-8.30;99.90
26595;DHT22;14238;49.496;8.154;2022-12-18T01:09:43;-8.30;99.90
26595;DHT22;14238;49.496;8.154;2022-12-18T01:12:09;-8.20;99.90
26595;DHT22;14238;49.496;8.154;2022-12-18T01:14:34;-8.20;99.90
26595;DHT22;14238;49.496;8.154;2022-12-18T01:17:00;-8.10;99.90
26595;DHT22;14238;49.496;8.154;2022-12-18T01:19:28;-8.10;99.90
26595;DHT22;14238;49.496;8.154;2022-12-18T01:21:53;-8.10;99.90
26595;DHT22;14238;49.496;8.154;2022-12-18T01:24:19;-8.10;99.90
26595;DHT22;14238;49.496;8.154;2022-12-18T01:26:45;-8.00;99.90
26595;DHT22;14238;49.496;8.154;2022-12-18T01:29:10;-8.00;99.90
26595;DHT22;14238;49.496;8.154;2022-12-18T01:31:36;-7.90;99.90
26595;DHT22;14238;49.496;8.154;2022-12-18T01:34:03;-7.90;99.90
26595;DHT22;14238;49.496;8.154;2022-12-18T01:36:32;-7.80;99.90
26595;DHT22;14238;49.496;8.154;2022-12-18T01:39:07;-7.70;99.90
26595;DHT22;14238;49.496;8.154;2022-12-18T01:41:33;-7.60;99.90
26595;DHT22;14238;49.496;8.154;2022-12-18T01:45:00;-7.60;99.90
26595;DHT22;14238;49.496;8.154;2022-12-18T01:47:45;-7.50;99.90
26595;DHT22;14238;49.496;8.154;2022-12-18T01:50:23;-7.50;99.90
26595;DHT22;14238;49.496;8.154;2022-12-18T01:52:56;-7.50;99.90
26595;DHT22;14238;49.496;8.154;2022-12-18T01:55:25;-7.50;99.90
26595;DHT22;14238;49.496;8.154;2022-12-18T01:57:57;-7.40;99.90
26595;DHT22;14238;49.496;8.154;2022-12-18T02:00:24;-7.40;99.90
26595;DHT22;14238;49.496;8.154;2022-12-18T02:02:50;-7.40;99.90
26595;DHT22;14238;49.496;8.154;2022-12-18T02:05:19;-7.40;99.90
26595;DHT22;14238;49.496;8.154;2022-12-18T02:14:10;-7.20;99.90
26595;DHT22;14238;49.496;8.154;2022-12-18T02:16:44;-7.20;99.90
26595;DHT22;14238;49.496;8.154;2022-12-18T02:22:24;-7.10;99.90
26595;DHT22;14238;49.496;8.154;2022-12-18T02:27:40;-7.20;99.90
26595;DHT22;14238;49.496;8.154;2022-12-18T02:30:07;-7.20;99.90
26595;DHT22;14238;49.496;8.154;2022-12-18T02:32:42;-7.20;99.90
26595;DHT22;14238;49.496;8.154;2022-12-18T02:35:21;-7.20;99.90
26595;DHT22;14238;49.496;8.154;2022-12-18T02:37:47;-7.20;99.90
26595;DHT22;14238;49.496;8.154;2022-12-18T02:40:14;-7.20;99.90
26595;DHT22;14238;49.496;8.154;2022-12-18T02:42:41;-7.20;99.90
26595;DHT22;14238;49.496;8.154;2022-12-18T02:45:06;-7.20;99.90
26595;DHT22;14238;49.496;8.154;2022-12-18T02:47:35;-7.20;99.90
26595;DHT22;14238;49.496;8.154;2022-12-18T02:58:03;-7.00;99.90
26595;DHT22;14238;49.496;8.154;2022-12-18T03:00:41;-7.10;99.90
26595;DHT22;14238;49.496;8.154;2022-12-18T03:03:16;-7.10;99.90
26595;DHT22;14238;49.496;8.154;2022-12-18T03:05:53;-7.10;99.90
26595;DHT22;14238;49.496;8.154;2022-12-18T03:08:27;-7.20;99.90
26595;DHT22;14238;49.496;8.154;2022-12-18T03:11:01;-7.30;99.90
26595;DHT22;14238;49.496;8.154;2022-12-18T03:13:54;-7.30;99.90
26595;DHT22;14238;49.496;8.154;2022-12-18T03:16:28;-7.40;99.90
26595;DHT22;14238;49.496;8.154;2022-12-18T03:19:01;-7.40;99.90
26595;DHT22;14238;49.496;8.154;2022-12-18T03:21:36;-7.60;99.90
26595;DHT22;14238;49.496;8.154;2022-12-18T03:24:05;-7.60;99.90
26595;DHT22;14238;49.496;8.154;2022-12-18T03:26:33;-7.60;99.90
26595;DHT22;14238;49.496;8.154;2022-12-18T03:29:05;-7.60;99.90
26595;DHT22;14238;49.496;8.154;2022-12-18T03:31:32;-7.70;99.90
26595;DHT22;14238;49.496;8.154;2022-12-18T03:34:01;-7.70;99.90
26595;DHT22;14238;49.496;8.154;2022-12-18T03:36:27;-7.70;99.90
26595;DHT22;14238;49.496;8.154;2022-12-18T03:38:53;-7.60;99.90
26595;DHT22;14238;49.496;8.154;2022-12-18T03:41:32;-7.70;99.90
26595;DHT22;14238;49.496;8.154;2022-12-18T03:49:57;-7.60;99.90
26595;DHT22;14238;49.496;8.154;2022-12-18T03:52:43;-7.60;99.90
26595;DHT22;14238;49.496;8.154;2022-12-18T03:55:12;-7.60;99.90
26595;DHT22;14238;49.496;8.154;2022-12-18T03:57:38;-7.60;99.90
26595;DHT22;14238;49.496;8.154;2022-12-18T04:00:17;-7.60;99.90
26595;DHT22;14238;49.496;8.154;2022-12-18T04:02:49;-7.50;99.90
26595;DHT22;14238;49.496;8.154;2022-12-18T04:05:17;-7.60;99.90
26595;DHT22;14238;49.496;8.154;2022-12-18T04:07:45;-7.60;99.90
26595;DHT22;14238;49.496;8.154;2022-12-18T04:10:12;-7.60;99.90
26595;DHT22;14238;49.496;8.154;2022-12-18T04:12:38;-7.60;99.90
26595;DHT22;14238;49.496;8.154;2022-12-18T04:15:05;-7.60;99.90
26595;DHT22;14238;49.496;8.154;2022-12-18T04:17:31;-7.50;99.90
26595;DHT22;14238;49.496;8.154;2022-12-18T04:19:56;-7.50;99.90
26595;DHT22;14238;49.496;8.154;2022-12-18T04:22:22;-7.50;99.90
26595;DHT22;14238;49.496;8.154;2022-12-18T04:24:47;-7.50;99.90
26595;DHT22;14238;49.496;8.154;2022-12-18T04:27:13;-7.40;99.90
26595;DHT22;14238;49.496;8.154;2022-12-18T04:29:39;-7.40;99.90
26595;DHT22;14238;49.496;8.154;2022-12-18T04:32:05;-7.30;99.90
26595;DHT22;14238;49.496;8.154;2022-12-18T04:34:30;-7.30;99.90
26595;DHT22;14238;49.496;8.154;2022-12-18T04:36:56;-7.40;99.90
26595;DHT22;14238;49.496;8.154;2022-12-18T04:39:21;-7.30;99.90
26595;DHT22;14238;49.496;8.154;2022-12-18T04:41:47;-7.30;99.90
26595;DHT22;14238;49.496;8.154;2022-12-18T04:44:12;-7.20;99.90
26595;DHT22;14238;49.496;8.154;2022-12-18T04:46:38;-7.20;99.90
26595;DHT22;14238;49.496;8.154;2022-12-18T04:49:04;-7.20;99.90
26595;DHT22;14238;49.496;8.154;2022-12-18T04:51:29;-7.10;99.90
26595;DHT22;14238;49.496;8.154;2022-12-18T04:53:55;-7.10;99.90
26595;DHT22;14238;49.496;8.154;2022-12-18T04:56:20;-7.10;99.90
26595;DHT22;14238;49.496;8.154;2022-12-18T04:58:46;-7.00;99.90
26595;DHT22;14238;49.496;8.154;2022-12-18T05:01:13;-7.00;99.90
26595;DHT22;14238;49.496;8.154;2022-12-18T05:03:39;-6.90;99.90
26595;DHT22;14238;49.496;8.154;2022-12-18T05:06:05;-6.80;99.90
26595;DHT22;14238;49.496;8.154;2022-12-18T05:08:31;-6.80;99.90
26595;DHT22;14238;49.496;8.154;2022-12-18T05:11:07;-6.80;99.90
26595;DHT22;14238;49.496;8.154;2022-12-18T05:13:34;-6.80;99.90
26595;DHT22;14238;49.496;8.154;2022-12-18T05:16:01;-6.80;99.90
26595;DHT22;14238;49.496;8.154;2022-12-18T05:18:27;-6.90;99.90
26595;DHT22;14238;49.496;8.154;2022-12-18T05:20:53;-6.90;99.90
26595;DHT22;14238;49.496;8.154;2022-12-18T05:23:20;-6.90;99.90
26595;DHT22;14238;49.496;8.154;2022-12-18T05:26:00;-6.90;99.90
26595;DHT22;14238;49.496;8.154;2022-12-18T05:28:27;-6.90;99.90
26595;DHT22;14238;49.496;8.154;2022-12-18T05:30:58;-6.80;99.90
26595;DHT22;14238;49.496;8.154;2022-12-18T05:33:26;-6.90;99.90
26595;DHT22;14238;49.496;8.154;2022-12-18T05:35:55;-6.90;99.90
26595;DHT22;14238;49.496;8.154;2022-12-18T05:38:22;-6.90;99.90
26595;DHT22;14238;49.496;8.154;2022-12-18T05:40:49;-6.90;99.90
26595;DHT22;14238;49.496;8.154;2022-12-18T05:43:15;-7.00;99.90
26595;DHT22;14238;49.496;8.154;2022-12-18T05:45:41;-7.00;99.90
26595;DHT22;14238;49.496;8.154;2022-12-18T05:48:08;-7.00;99.90
26595;DHT22;14238;49.496;8.154;2022-12-18T05:50:35;-7.00;99.90
26595;DHT22;14238;49.496;8.154;2022-12-18T05:53:03;-7.00;99.90
26595;DHT22;14238;49.496;8.154;2022-12-18T05:55:28;-7.10;99.90
26595;DHT22;14238;49.496;8.154;2022-12-18T05:57:54;-7.10;99.90
26595;DHT22;14238;49.496;8.154;2022-12-18T06:00:19;-7.20;99.90
26595;DHT22;14238;49.496;8.154;2022-12-18T06:02:48;-7.20;99.90
26595;DHT22;14238;49.496;8.154;2022-12-18T06:05:14;-7.10;99.90
26595;DHT22;14238;49.496;8.154;2022-12-18T06:07:39;-7.20;99.90
26595;DHT22;14238;49.496;8.154;2022-12-18T06:10:06;-7.30;99.90
26595;DHT22;14238;49.496;8.154;2022-12-18T06:12:31;-7.40;99.90
26595;DHT22;14238;49.496;8.154;2022-12-18T06:14:59;-7.40;99.90
26595;DHT22;14238;49.496;8.154;2022-12-18T06:17:28;-7.40;99.90
26595;DHT22;14238;49.496;8.154;2022-12-18T06:19:54;-7.40;99.90
26595;DHT22;14238;49.496;8.154;2022-12-18T06:22:20;-7.60;99.90
26595;DHT22;14238;49.496;8.154;2022-12-18T06:24:46;-7.70;99.90
26595;DHT22;14238;49.496;8.154;2022-12-18T06:27:11;-7.80;99.90
26595;DHT22;14238;49.496;8.154;2022-12-18T06:29:37;-7.80;99.90
26595;DHT22;14238;49.496;8.154;2022-12-18T06:32:02;-7.80;99.90
26595;DHT22;14238;49.496;8.154;2022-12-18T06:34:28;-7.90;99.90
26595;DHT22;14238;49.496;8.154;2022-12-18T06:36:53;-8.00;99.90
26595;DHT22;14238;49.496;8.154;2022-12-18T06:39:19;-8.10;99.90
26595;DHT22;14238;49.496;8.154;2022-12-18T06:41:45;-7.90;99.90
26595;DHT22;14238;49.496;8.154;2022-12-18T06:44:10;-7.90;99.90
26595;DHT22;14238;49.496;8.154;2022-12-18T06:46:36;-7.70;99.90
26595;DHT22;14238;49.496;8.154;2022-12-18T06:49:03;-7.50;99.90
26595;DHT22;14238;49.496;8.154;2022-12-18T06:51:28;-7.50;99.90
26595;DHT22;14238;49.496;8.154;2022-12-18T06:53:54;-7.40;99.90
26595;DHT22;14238;49.496;8.154;2022-12-18T06:56:20;-7.40;99.90
26595;DHT22;14238;49.496;8.154;2022-12-18T06:58:45;-7.50;99.90
26595;DHT22;14238;49.496;8.154;2022-12-18T07:01:11;-7.60;99.90
26595;DHT22;14238;49.496;8.154;2022-12-18T07:03:38;-7.70;99.90
26595;DHT22;14238;49.496;8.154;2022-12-18T07:06:05;-7.60;99.90
26595;DHT22;14238;49.496;8.154;2022-12-18T07:08:31;-7.60;99.90
26595;DHT22;14238;49.496;8.154;2022-12-18T07:10:57;-7.70;99.90
26595;DHT22;14238;49.496;8.154;2022-12-18T07:13:23;-7.80;99.90
26595;DHT22;14238;49.496;8.154;2022-12-18T07:15:48;-7.80;99.90
26595;DHT22;14238;49.496;8.154;2022-12-18T07:18:14;-7.80;99.90
26595;DHT22;14238;49.496;8.154;2022-12-18T07:20:39;-7.80;99.90
26595;DHT22;14238;49.496;8.154;2022-12-18T07:23:05;-7.80;99.90
26595;DHT22;14238;49.496;8.154;2022-12-18T07:25:34;-7.70;99.90
26595;DHT22;14238;49.496;8.154;2022-12-18T07:28:00;-7.60;99.90
26595;DHT22;14238;49.496;8.154;2022-12-18T07:30:26;-7.50;99.90
26595;DHT22;14238;49.496;8.154;2022-12-18T07:32:51;-7.60;99.90
26595;DHT22;14238;49.496;8.154;2022-12-18T07:35:17;-7.50;99.90
26595;DHT22;14238;49.496;8.154;2022-12-18T07:37:42;-7.50;99.90
26595;DHT22;14238;49.496;8.154;2022-12-18T07:40:08;-7.30;99.90
26595;DHT22;14238;49.496;8.154;2022-12-18T07:42:34;-7.40;99.90
26595;DHT22;14238;49.496;8.154;2022-12-18T07:45:02;-7.30;99.90
26595;DHT22;14238;49.496;8.154;2022-12-18T07:47:28;-7.30;99.90
26595;DHT22;14238;49.496;8.154;2022-12-18T07:49:54;-7.20;99.90
26595;DHT22;14238;49.496;8.154;2022-12-18T07:52:19;-7.20;99.90
26595;DHT22;14238;49.496;8.154;2022-12-18T07:54:45;-7.10;99.90
26595;DHT22;14238;49.496;8.154;2022-12-18T07:57:11;-7.10;99.90
26595;DHT22;14238;49.496;8.154;2022-12-18T07:59:36;-7.10;99.90
26595;DHT22;14238;49.496;8.154;2022-12-18T08:02:02;-7.00;99.90
26595;DHT22;14238;49.496;8.154;2022-12-18T08:04:28;-7.00;99.90
26595;DHT22;14238;49.496;8.154;2022-12-18T08:06:54;-7.00;99.90
26595;DHT22;14238;49.496;8.154;2022-12-18T08:09:19;-7.00;99.90
26595;DHT22;14238;49.496;8.154;2022-12-18T08:11:45;-7.00;99.90
26595;DHT22;14238;49.496;8.154;2022-12-18T08:14:11;-6.90;99.90
26595;DHT22;14238;49.496;8.154;2022-12-18T08:16:36;-7.00;99.90
26595;DHT22;14238;49.496;8.154;2022-12-18T08:19:02;-6.90;99.90
26595;DHT22;14238;49.496;8.154;2022-12-18T08:21:30;-6.80;99.90
26595;DHT22;14238;49.496;8.154;2022-12-18T08:23:58;-6.80;99.90
26595;DHT22;14238;49.496;8.154;2022-12-18T08:26:26;-6.70;99.90
26595;DHT22;14238;49.496;8.154;2022-12-18T08:28:54;-6.70;99.90
26595;DHT22;14238;49.496;8.154;2022-12-18T08:31:20;-6.70;99.90
26595;DHT22;14238;49.496;8.154;2022-12-18T08:33:49;-6.60;99.90
26595;DHT22;14238;49.496;8.154;2022-12-18T08:36:15;-6.50;99.90
26595;DHT22;14238;49.496;8.154;2022-12-18T08:38:41;-6.50;99.90
26595;DHT22;14238;49.496;8.154;2022-12-18T08:41:08;-6.50;99.90
26595;DHT22;14238;49.496;8.154;2022-12-18T08:43:34;-6.50;99.90
26595;DHT22;14238;49.496;8.154;2022-12-18T08:46:19;-6.40;99.90
26595;DHT22;14238;49.496;8.154;2022-12-18T08:48:45;-6.40;99.90
26595;DHT22;14238;49.496;8.154;2022-12-18T08:51:11;-6.30;99.90
26595;DHT22;14238;49.496;8.154;2022-12-18T08:53:36;-6.30;99.90
26595;DHT22;14238;49.496;8.154;2022-12-18T08:56:03;-6.30;99.90
26595;DHT22;14238;49.496;8.154;2022-12-18T08:58:29;-6.20;99.90
26595;DHT22;14238;49.496;8.154;2022-12-18T09:00:59;-6.10;99.90
26595;DHT22;14238;49.496;8.154;2022-12-18T09:03:24;-6.00;99.90
26595;DHT22;14238;49.496;8.154;2022-12-18T09:05:50;-5.90;99.90
26595;DHT22;14238;49.496;8.154;2022-12-18T09:08:15;-5.90;99.90
26595;DHT22;14238;49.496;8.154;2022-12-18T09:10:42;-5.90;99.90
26595;DHT22;14238;49.496;8.154;2022-12-18T09:13:10;-5.90;99.90
26595;DHT22;14238;49.496;8.154;2022-12-18T09:15:41;-5.90;99.90
26595;DHT22;14238;49.496;8.154;2022-12-18T09:18:07;-5.80;99.90
26595;DHT22;14238;49.496;8.154;2022-12-18T09:20:32;-5.80;99.90
26595;DHT22;14238;49.496;8.154;2022-12-18T09:22:58;-5.90;99.90
26595;DHT22;14238;49.496;8.154;2022-12-18T09:25:23;-5.90;99.90
26595;DHT22;14238;49.496;8.154;2022-12-18T09:27:49;-5.90;99.90
26595;DHT22;14238;49.496;8.154;2022-12-18T09:30:14;-5.80;99.90
26595;DHT22;14238;49.496;8.154;2022-12-18T09:32:40;-5.60;99.90
26595;DHT22;14238;49.496;8.154;2022-12-18T09:35:06;-5.60;99.90
26595;DHT22;14238;49.496;8.154;2022-12-18T09:37:31;-5.60;99.90
26595;DHT22;14238;49.496;8.154;2022-12-18T09:39:57;-5.50;99.90
26595;DHT22;14238;49.496;8.154;2022-12-18T09:42:23;-5.50;99.90
26595;DHT22;14238;49.496;8.154;2022-12-18T09:44:51;-5.60;99.90
26595;DHT22;14238;49.496;8.154;2022-12-18T09:47:22;-5.50;99.90
26595;DHT22;14238;49.496;8.154;2022-12-18T09:49:52;-5.40;99.90
26595;DHT22;14238;49.496;8.154;2022-12-18T09:52:41;-5.40;99.90
26595;DHT22;14238;49.496;8.154;2022-12-18T09:55:37;-5.30;99.90
26595;DHT22;14238;49.496;8.154;2022-12-18T10:00:40;-5.00;99.90
26595;DHT22;14238;49.496;8.154;2022-12-18T10:03:14;-5.10;99.90
26595;DHT22;14238;49.496;8.154;2022-12-18T10:06:11;-5.20;99.90
26595;DHT22;14238;49.496;8.154;2022-12-18T10:19:41;-5.00;99.90
26595;DHT22;14238;49.496;8.154;2022-12-18T10:24:49;-5.10;99.90
26595;DHT22;14238;49.496;8.154;2022-12-18T10:27:23;-5.00;99.90
26595;DHT22;14238;49.496;8.154;2022-12-18T10:29:50;-4.90;99.90
26595;DHT22;14238;49.496;8.154;2022-12-18T10:32:27;-5.00;99.90
26595;DHT22;14238;49.496;8.154;2022-12-18T10:34:55;-5.00;99.90
26595;DHT22;14238;49.496;8.154;2022-12-18T10:37:26;-4.90;99.90
26595;DHT22;14238;49.496;8.154;2022-12-18T10:40:14;-5.00;99.90
26595;DHT22;14238;49.496;8.154;2022-12-18T10:42:40;-5.00;99.90
26595;DHT22;14238;49.496;8.154;2022-12-18T10:45:16;-4.90;99.90
26595;DHT22;14238;49.496;8.154;2022-12-18T10:47:46;-5.00;99.90
26595;DHT22;14238;49.496;8.154;2022-12-18T10:52:54;-5.00;99.90
26595;DHT22;14238;49.496;8.154;2022-12-18T10:55:20;-4.90;99.90
26595;DHT22;14238;49.496;8.154;2022-12-18T10:57:46;-4.90;99.90
26595;DHT22;14238;49.496;8.154;2022-12-18T11:00:28;-4.80;99.90
26595;DHT22;14238;49.496;8.154;2022-12-18T11:02:55;-5.00;99.90
26595;DHT22;14238;49.496;8.154;2022-12-18T11:05:25;-5.10;99.90
26595;DHT22;14238;49.496;8.154;2022-12-18T11:07:51;-5.10;99.90
26595;DHT22;14238;49.496;8.154;2022-12-18T11:10:20;-5.20;99.90
26595;DHT22;14238;49.496;8.154;2022-12-18T11:12:47;-5.20;99.90
26595;DHT22;14238;49.496;8.154;2022-12-18T11:15:21;-5.20;99.90
26595;DHT22;14238;49.496;8.154;2022-12-18T11:17:50;-5.10;99.90
26595;DHT22;14238;49.496;8.154;2022-12-18T11:20:35;-5.00;99.90
26595;DHT22;14238;49.496;8.154;2022-12-18T11:23:21;-4.90;99.90
26595;DHT22;14238;49.496;8.154;2022-12-18T11:25:57;-4.80;99.90
26595;DHT22;14238;49.496;8.154;2022-12-18T11:28:36;-4.80;99.90
26595;DHT22;14238;49.496;8.154;2022-12-18T11:31:28;-4.90;99.90
26595;DHT22;14238;49.496;8.154;2022-12-18T11:36:41;-5.00;99.90
26595;DHT22;14238;49.496;8.154;2022-12-18T11:39:33;-5.00;99.90
26595;DHT22;14238;49.496;8.154;2022-12-18T11:42:17;-5.00;99.90
26595;DHT22;14238;49.496;8.154;2022-12-18T11:44:53;-4.90;99.90
26595;DHT22;14238;49.496;8.154;2022-12-18T11:47:44;-5.00;99.90
26595;DHT22;14238;49.496;8.154;2022-12-18T11:50:16;-5.00;99.90
26595;DHT22;14238;49.496;8.154;2022-12-18T11:52:42;-5.00;99.90
26595;DHT22;14238;49.496;8.154;2022-12-18T11:55:14;-4.90;99.90
26595;DHT22;14238;49.496;8.154;2022-12-18T11:58:15;-4.90;99.90
26595;DHT22;14238;49.496;8.154;2022-12-18T12:00:53;-4.80;99.90
26595;DHT22;14238;49.496;8.154;2022-12-18T12:03:37;-4.80;99.90
26595;DHT22;14238;49.496;8.154;2022-12-18T12:06:30;-4.80;99.90
26595;DHT22;14238;49.496;8.154;2022-12-18T12:09:08;-4.60;99.90
26595;DHT22;14238;49.496;8.154;2022-12-18T12:14:45;-4.50;99.90
26595;DHT22;14238;49.496;8.154;2022-12-18T12:17:37;-4.60;99.90
26595;DHT22;14238;49.496;8.154;2022-12-18T12:20:18;-4.60;99.90
26595;DHT22;14238;49.496;8.154;2022-12-18T12:36:16;-4.50;99.90
26595;DHT22;14238;49.496;8.154;2022-12-18T12:38:49;-4.50;99.90
26595;DHT22;14238;49.496;8.154;2022-12-18T12:41:19;-4.50;99.90
26595;DHT22;14238;49.496;8.154;2022-12-18T12:44:08;-4.30;99.90
26595;DHT22;14238;49.496;8.154;2022-12-18T12:46:37;-4.20;99.90
26595;DHT22;14238;49.496;8.154;2022-12-18T12:49:11;-4.20;99.90
26595;DHT22;14238;49.496;8.154;2022-12-18T12:51:40;-4.30;99.90
26595;DHT22;14238;49.496;8.154;2022-12-18T12:54:14;-4.40;99.90
26595;DHT22;14238;49.496;8.154;2022-12-18T12:59:57;-4.20;99.90
26595;DHT22;14238;49.496;8.154;2022-12-18T13:02:36;-4.10;99.90
26595;DHT22;14238;49.496;8.154;2022-12-18T13:08:10;-3.90;99.90
26595;DHT22;14238;49.496;8.154;2022-12-18T13:10:40;-3.90;99.90
26595;DHT22;14238;49.496;8.154;2022-12-18T13:15:41;-3.80;99.90
26595;DHT22;14238;49.496;8.154;2022-12-18T13:18:14;-3.90;99.90
26595;DHT22;14238;49.496;8.154;2022-12-18T13:20:46;-3.90;99.90
26595;DHT22;14238;49.496;8.154;2022-12-18T13:23:25;-3.90;99.90
26595;DHT22;14238;49.496;8.154;2022-12-18T13:25:53;-3.80;99.90
26595;DHT22;14238;49.496;8.154;2022-12-18T13:31:02;-3.80;99.90
26595;DHT22;14238;49.496;8.154;2022-12-18T13:36:31;-3.70;99.90
26595;DHT22;14238;49.496;8.154;2022-12-18T13:41:44;-3.80;99.90
26595;DHT22;14238;49.496;8.154;2022-12-18T13:47:03;-3.80;99.90
26595;DHT22;14238;49.496;8.154;2022-12-18T13:49:40;-3.80;99.90
26595;DHT22;14238;49.496;8.154;2022-12-18T13:52:21;-3.80;99.90
26595;DHT22;14238;49.496;8.154;2022-12-18T13:54:55;-3.80;99.90
26595;DHT22;14238;49.496;8.154;2022-12-18T13:57:35;-3.80;99.90
26595;DHT22;14238;49.496;8.154;2022-12-18T14:00:26;-3.80;99.90
26595;DHT22;14238;49.496;8.154;2022-12-18T14:02:54;-3.80;99.90
26595;DHT22;14238;49.496;8.154;2022-12-18T14:07:54;-3.80;99.90
26595;DHT22;14238;49.496;8.154;2022-12-18T14:10:21;-3.80;99.90
26595;DHT22;14238;49.496;8.154;2022-12-18T14:12:48;-3.80;99.90
26595;DHT22;14238;49.496;8.154;2022-12-18T14:15:32;-3.80;99.90
26595;DHT22;14238;49.496;8.154;2022-12-18T14:20:47;-3.90;99.90
26595;DHT22;14238;49.496;8.154;2022-12-18T14:23:42;-3.90;99.90
26595;DHT22;14238;49.496;8.154;2022-12-18T14:26:27;-3.90;99.90
26595;DHT22;14238;49.496;8.154;2022-12-18T14:28:55;-3.90;99.90
26595;DHT22;14238;49.496;8.154;2022-12-18T14:31:24;-3.90;99.90
26595;DHT22;14238;49.496;8.154;2022-12-18T14:33:50;-4.00;99.90
26595;DHT22;14238;49.496;8.154;2022-12-18T14:36:19;-4.00;99.90
26595;DHT22;14238;49.496;8.154;2022-12-18T14:38:52;-4.00;99.90
26595;DHT22;14238;49.496;8.154;2022-12-18T14:41:20;-4.00;99.90
26595;DHT22;14238;49.496;8.154;2022-12-18T14:43:51;-4.10;99.90
26595;DHT22;14238;49.496;8.154;2022-12-18T14:46:34;-4.10;99.90
26595;DHT22;14238;49.496;8.154;2022-12-18T14:49:44;-4.20;99.90
26595;DHT22;14238;49.496;8.154;2022-12-18T14:52:22;-4.10;99.90
26595;DHT22;14238;49.496;8.154;2022-12-18T14:54:50;-4.10;99.90
26595;DHT22;14238;49.496;8.154;2022-12-18T14:57:24;-4.20;99.90
26595;DHT22;14238;49.496;8.154;2022-12-18T14:59:50;-4.20;99.90
26595;DHT22;14238;49.496;8.154;2022-12-18T15:02:23;-4.20;99.90
26595;DHT22;14238;49.496;8.154;2022-12-18T15:05:03;-4.20;99.90
26595;DHT22;14238;49.496;8.154;2022-12-18T15:07:46;-4.30;99.90
26595;DHT22;14238;49.496;8.154;2022-12-18T15:10:15;-4.30;99.90
26595;DHT22;14238;49.496;8.154;2022-12-18T15:12:43;-4.30;99.90
26595;DHT22;14238;49.496;8.154;2022-12-18T15:15:46;-4.40;99.90
26595;DHT22;14238;49.496;8.154;2022-12-18T15:18:15;-4.40;99.90
26595;DHT22;14238;49.496;8.154;2022-12-18T15:20:47;-4.50;99.90
26595;DHT22;14238;49.496;8.154;2022-12-18T15:23:34;-4.40;99.90
26595;DHT22;14238;49.496;8.154;2022-12-18T15:26:03;-4.50;99.90
26595;DHT22;14238;49.496;8.154;2022-12-18T15:28:36;-4.40;99.90
26595;DHT22;14238;49.496;8.154;2022-12-18T15:36:11;-4.50;99.90
26595;DHT22;14238;49.496;8.154;2022-12-18T15:38:37;-4.50;99.90
26595;DHT22;14238;49.496;8.154;2022-12-18T15:41:03;-4.50;99.90
26595;DHT22;14238;49.496;8.154;2022-12-18T15:43:28;-4.50;99.90
26595;DHT22;14238;49.496;8.154;2022-12-18T15:46:20;-4.50;99.90
26595;DHT22;14238;49.496;8.154;2022-12-18T15:48:48;-4.40;99.90
26595;DHT22;14238;49.496;8.154;2022-12-18T15:53:46;-4.30;99.90
26595;DHT22;14238;49.496;8.154;2022-12-18T15:56:13;-4.10;99.90
26595;DHT22;14238;49.496;8.154;2022-12-18T15:58:57;-4.20;99.90
26595;DHT22;14238;49.496;8.154;2022-12-18T16:01:26;-4.10;99.90
26595;DHT22;14238;49.496;8.154;2022-12-18T16:03:51;-4.00;99.90
26595;DHT22;14238;49.496;8.154;2022-12-18T16:06:18;-3.90;99.90
26595;DHT22;14238;49.496;8.154;2022-12-18T16:08:44;-3.90;99.90
26595;DHT22;14238;49.496;8.154;2022-12-18T16:11:29;-3.90;99.90
26595;DHT22;14238;49.496;8.154;2022-12-18T16:14:17;-3.90;99.90
26595;DHT22;14238;49.496;8.154;2022-12-18T16:16:45;-3.80;99.90
26595;DHT22;14238;49.496;8.154;2022-12-18T16:19:10;-3.90;99.90
26595;DHT22;14238;49.496;8.154;2022-12-18T16:21:36;-3.80;99.90
26595;DHT22;14238;49.496;8.154;2022-12-18T16:24:01;-3.80;99.90
26595;DHT22;14238;49.496;8.154;2022-12-18T16:26:27;-3.80;99.90
26595;DHT22;14238;49.496;8.154;2022-12-18T16:28:53;-3.80;99.90
26595;DHT22;14238;49.496;8.154;2022-12-18T16:31:19;-3.80;99.90
26595;DHT22;14238;49.496;8.154;2022-12-18T16:33:44;-3.80;99.90
26595;DHT22;14238;49.496;8.154;2022-12-18T16:36:10;-3.80;99.90
26595;DHT22;14238;49.496;8.154;2022-12-18T16:38:35;-3.70;99.90
26595;DHT22;14238;49.496;8.154;2022-12-18T16:41:01;-3.70;99.90
26595;DHT22;14238;49.496;8.154;2022-12-18T16:43:57;-3.60;99.90
26595;DHT22;14238;49.496;8.154;2022-12-18T16:46:22;-3.60;99.90
26595;DHT22;14238;49.496;8.154;2022-12-18T16:48:48;-3.70;99.90
26595;DHT22;14238;49.496;8.154;2022-12-18T16:51:13;-3.70;99.90
26595;DHT22;14238;49.496;8.154;2022-12-18T16:53:39;-3.60;99.90
26595;DHT22;14238;49.496;8.154;2022-12-18T16:56:04;-3.50;99.90
26595;DHT22;14238;49.496;8.154;2022-12-18T16:58:30;-3.50;99.90
26595;DHT22;14238;49.496;8.154;2022-12-18T17:00:56;-3.50;99.90
26595;DHT22;14238;49.496;8.154;2022-12-18T17:03:21;-3.50;99.90
26595;DHT22;14238;49.496;8.154;2022-12-18T17:05:47;-3.50;99.90
26595;DHT22;14238;49.496;8.154;2022-12-18T17:08:12;-3.60;99.90
26595;DHT22;14238;49.496;8.154;2022-12-18T17:10:38;-3.60;99.90
26595;DHT22;14238;49.496;8.154;2022-12-18T17:13:03;-3.50;99.90
26595;DHT22;14238;49.496;8.154;2022-12-18T17:15:29;-3.40;99.90
26595;DHT22;14238;49.496;8.154;2022-12-18T17:17:55;-3.40;99.90
26595;DHT22;14238;49.496;8.154;2022-12-18T17:20:20;-3.40;99.90
26595;DHT22;14238;49.496;8.154;2022-12-18T17:22:46;-3.40;99.90
26595;DHT22;14238;49.496;8.154;2022-12-18T17:25:12;-3.40;99.90